createdAt,value
2023-05-10T00:04:28.532Z,48.85
2023-05-10T00:09:31.189Z,49.21
2023-05-10T00:14:34.543Z,49.16
2023-05-10T00:19:37.248Z,49.56
2023-05-10T00:24:39.926Z,49.92
2023-05-10T00:29:42.606Z,50.05
2023-05-10T00:34:45.372Z,49.72
2023-05-10T00:39:48.045Z,50.11
2023-05-10T00:44:50.746Z,50.03
2023-05-10T00:49:53.482Z,49.98
2023-05-10T00:54:56.649Z,50.36
2023-05-10T01:00:00.507Z,50.74
2023-05-10T01:05:04.786Z,51.28
2023-05-10T01:10:09.467Z,52.19
2023-05-10T01:15:13.225Z,52.45
2023-05-10T01:20:16.704Z,52.60
2023-05-10T01:25:35.025Z,52.72
2023-05-10T01:31:16.613Z,52.84
2023-05-10T01:36:31.902Z,52.73
2023-05-10T01:41:42.291Z,52.83
2023-05-10T01:46:52.972Z,53.15
2023-05-10T01:52:01.614Z,53.27
2023-05-10T01:57:09.796Z,53.39
2023-05-10T02:02:14.917Z,53.53
2023-05-10T02:07:18.947Z,53.61
2023-05-10T02:12:24.113Z,53.86
2023-05-10T02:17:27.680Z,54.05
2023-05-10T02:22:30.754Z,54.08
2023-05-10T02:27:35.874Z,54.20
2023-05-10T02:32:39.976Z,54.53
2023-05-10T02:37:44.532Z,54.91
2023-05-10T02:42:50.320Z,54.93
2023-05-10T02:47:53.560Z,55.15
2023-05-10T02:53:02.816Z,55.30
2023-05-10T02:58:05.557Z,55.29
2023-05-10T03:03:08.930Z,55.25
2023-05-10T03:08:12.289Z,55.51
2023-05-10T03:13:29.437Z,55.76
2023-05-10T03:18:43.068Z,55.76
2023-05-10T03:24:03.789Z,55.51
2023-05-10T03:29:08.637Z,55.27
2023-05-10T03:34:11.567Z,55.19
2023-05-10T03:39:14.256Z,55.09
2023-05-10T03:44:17.477Z,55.14
2023-05-10T03:49:20.159Z,55.02
2023-05-10T03:54:22.909Z,55.21
2023-05-10T03:59:25.610Z,55.06
2023-05-10T04:04:28.570Z,55.09
2023-05-10T04:09:31.248Z,54.90
2023-05-10T04:14:34.535Z,54.89
2023-05-10T04:19:37.237Z,54.69
2023-05-10T04:24:39.909Z,54.61
2023-05-10T04:29:42.673Z,54.86
2023-05-10T04:34:45.676Z,54.92
2023-05-10T04:39:48.368Z,54.90
2023-05-10T04:44:51.413Z,54.72
2023-05-10T04:49:54.127Z,54.41
2023-05-10T04:54:56.887Z,54.02
2023-05-10T05:00:01.108Z,53.36
2023-05-10T05:05:03.983Z,52.53
2023-05-10T05:10:08.612Z,52.25
2023-05-10T05:15:11.942Z,52.04
2023-05-10T05:20:15.273Z,51.76
2023-05-10T05:25:18.452Z,51.29
2023-05-10T05:30:25.260Z,50.87
2023-05-10T05:35:28.236Z,50.27
2023-05-10T05:40:32.558Z,49.71
2023-05-10T05:45:39.170Z,49.47
2023-05-10T05:50:41.904Z,49.46
2023-05-10T05:56:02.105Z,48.54
2023-05-10T06:01:05.654Z,47.69
2023-05-10T06:13:08.607Z,46.03
2023-05-10T06:18:14.474Z,44.98
2023-05-10T06:23:32.493Z,44.11
2023-05-10T06:28:42.770Z,43.20
2023-05-10T06:33:47.003Z,42.82
2023-05-10T06:38:49.886Z,41.94
2023-05-10T06:43:52.680Z,40.47
2023-05-10T06:48:57.910Z,39.80
2023-05-10T06:54:01.230Z,39.14
2023-05-10T06:59:04.077Z,38.47
2023-05-10T07:04:09.690Z,36.84
2023-05-10T07:09:15.822Z,36.77
2023-05-10T07:14:18.773Z,34.76
2023-05-10T07:19:21.597Z,35.22
2023-05-10T07:24:24.502Z,33.50
2023-05-10T07:29:29.694Z,32.00
2023-05-10T07:34:35.094Z,31.65
2023-05-10T07:39:40.742Z,31.21
2023-05-10T07:44:48.406Z,31.16
2023-05-10T07:49:55.227Z,31.06
2023-05-10T07:55:05.731Z,30.39
2023-05-10T08:05:43.771Z,28.25
2023-05-10T08:10:47.750Z,28.23
2023-05-10T08:15:58.545Z,28.14
2023-05-10T08:21:09.092Z,28.05
2023-05-10T08:26:15.011Z,27.69
2023-05-10T08:31:20.528Z,26.84
2023-05-10T08:36:33.946Z,27.24
2023-05-10T08:41:40.151Z,27.17
2023-05-10T08:46:47.763Z,26.34
2023-05-10T08:52:16.179Z,26.24
2023-05-10T08:57:22.508Z,26.39
2023-05-10T09:02:31.198Z,26.14
2023-05-10T09:07:45.870Z,25.93
2023-05-10T09:12:53.121Z,24.88
2023-05-10T09:18:07.529Z,25.17
2023-05-10T09:23:33.433Z,24.71
2023-05-10T09:28:58.788Z,24.92
2023-05-10T09:34:01.860Z,24.53
2023-05-10T09:44:44.726Z,24.09
2023-05-10T09:49:52.333Z,23.92
2023-05-10T09:55:01.311Z,23.65
2023-05-10T10:02:19.875Z,23.44
2023-05-10T10:06:02.344Z,23.87
2023-05-10T10:11:12.680Z,23.34
2023-05-10T10:16:16.974Z,23.54
2023-05-10T10:21:21.772Z,23.40
2023-05-10T10:26:26.114Z,23.20
2023-05-10T10:31:47.195Z,23.55
2023-05-10T10:36:52.981Z,23.19
2023-05-10T10:42:04.782Z,23.39
2023-05-10T10:47:09.727Z,23.35
2023-05-10T10:52:37.886Z,23.36
2023-05-10T10:57:42.587Z,23.40
2023-05-10T11:03:20.147Z,23.06
2023-05-10T11:08:26.338Z,22.80
2023-05-10T11:13:29.429Z,22.64
2023-05-10T11:18:34.752Z,22.35
2023-05-10T11:23:40.611Z,22.21
2023-05-10T11:28:48.448Z,22.34
2023-05-10T11:33:53.405Z,22.36
2023-05-10T11:38:57.819Z,22.37
2023-05-10T11:44:00.972Z,22.24
2023-05-10T11:49:07.238Z,22.09
2023-05-10T11:54:14.811Z,21.98
2023-05-10T11:59:19.136Z,22.19
2023-05-10T12:04:22.992Z,21.46
2023-05-10T12:09:39.743Z,21.28
2023-05-10T12:14:51.451Z,21.86
2023-05-10T12:19:54.170Z,21.63
2023-05-10T12:24:56.912Z,20.99
2023-05-10T12:30:01.091Z,20.94
2023-05-10T12:35:05.023Z,21.09
2023-05-10T12:40:10.506Z,21.24
2023-05-10T12:45:16.250Z,21.62
2023-05-10T12:50:19.622Z,21.08
2023-05-10T12:55:22.902Z,20.60
2023-05-10T13:00:27.145Z,20.72
2023-05-10T13:05:30.796Z,20.75
2023-05-10T13:10:37.063Z,20.41
2023-05-10T13:15:40.517Z,20.37
2023-05-10T13:20:45.276Z,20.02
2023-05-10T13:25:48.169Z,20.20
2023-05-10T13:30:50.914Z,20.16
2023-05-10T13:35:55.625Z,20.54
2023-05-10T13:40:58.452Z,20.85
2023-05-10T13:46:03.945Z,20.57
2023-05-10T13:51:06.708Z,20.36
2023-05-10T13:56:09.507Z,20.21
2023-05-10T14:01:14.800Z,19.99
2023-05-10T14:06:17.564Z,19.89
2023-05-10T14:11:24.401Z,19.88
2023-05-10T14:16:28.719Z,19.68
2023-05-10T14:21:31.783Z,19.58
2023-05-10T14:26:35.545Z,19.63
2023-05-10T14:31:38.237Z,19.14
2023-05-10T14:36:41.434Z,19.11
2023-05-10T14:41:46.920Z,19.46
2023-05-10T14:46:50.820Z,19.49
2023-05-10T14:51:57.131Z,19.35
2023-05-10T14:57:01.375Z,19.38
2023-05-10T15:02:05.691Z,19.43
2023-05-10T15:07:09.125Z,19.48
2023-05-10T15:12:12.231Z,19.48
2023-05-10T15:17:14.967Z,20.09
2023-05-10T15:22:17.705Z,20.40
2023-05-10T15:27:23.250Z,20.02
2023-05-10T15:32:26.252Z,19.83
2023-05-10T15:37:29.192Z,20.00
2023-05-10T15:42:34.427Z,20.23
2023-05-10T15:47:37.523Z,20.23
2023-05-10T15:52:40.271Z,20.38
2023-05-10T15:57:44.754Z,20.78
2023-05-10T16:02:47.586Z,21.17
2023-05-10T16:07:50.689Z,21.29
2023-05-10T16:12:55.640Z,21.53
2023-05-10T16:17:58.580Z,21.81
2023-05-10T16:23:07.010Z,21.85
2023-05-10T16:28:09.777Z,22.29
2023-05-10T16:33:12.499Z,22.46
2023-05-10T16:38:15.193Z,22.71
2023-05-10T16:43:18.282Z,23.10
2023-05-10T16:48:21.077Z,23.38
2023-05-10T16:53:23.849Z,23.43
2023-05-10T16:58:26.995Z,23.91
2023-05-10T17:03:29.802Z,24.29
2023-05-10T17:08:33.875Z,24.63
2023-05-10T17:13:37.090Z,24.47
2023-05-10T17:18:43.027Z,24.82
2023-05-10T17:23:46.484Z,25.17
2023-05-10T17:28:55.102Z,25.12
2023-05-10T17:33:59.696Z,25.36
2023-05-10T17:39:02.701Z,25.44
2023-05-10T17:44:05.566Z,26.17
2023-05-10T17:49:11.518Z,26.37
2023-05-10T17:54:14.985Z,26.59
2023-05-10T17:59:18.735Z,26.64
2023-05-10T18:04:26.160Z,27.12
2023-05-10T18:09:29.771Z,27.21
2023-05-10T18:14:40.744Z,27.67
2023-05-10T18:19:44.517Z,27.85
2023-05-10T18:24:47.740Z,28.36
2023-05-10T18:29:51.959Z,28.61
2023-05-10T18:34:57.163Z,28.94
2023-05-10T18:39:59.907Z,29.26
2023-05-10T18:45:03.600Z,29.55
2023-05-10T18:50:07.719Z,29.77
2023-05-10T18:55:10.578Z,30.09
2023-05-10T19:00:13.604Z,30.39
2023-05-10T19:05:17.129Z,30.75
2023-05-10T19:10:20.360Z,30.77
2023-05-10T19:15:23.199Z,30.90
2023-05-10T19:20:29.160Z,31.28
2023-05-10T19:25:34.785Z,31.44
2023-05-10T19:30:40.795Z,31.89
2023-05-10T19:35:43.648Z,32.33
2023-05-10T19:40:46.533Z,32.38
2023-05-10T19:45:50.203Z,32.63
2023-05-10T19:51:09.911Z,32.89
2023-05-10T19:56:14.685Z,33.43
2023-05-10T20:01:17.747Z,34.05
2023-05-10T20:06:20.535Z,34.42
2023-05-10T20:11:23.534Z,34.76
2023-05-10T20:16:27.166Z,34.92
2023-05-10T20:21:30.251Z,35.36
2023-05-10T20:26:34.076Z,35.86
2023-05-10T20:31:36.815Z,36.06
2023-05-10T20:36:39.606Z,36.29
2023-05-10T20:41:42.819Z,36.80
2023-05-10T20:46:45.654Z,37.34
2023-05-10T20:51:48.434Z,37.29
2023-05-10T20:56:51.934Z,37.33
2023-05-10T21:01:54.788Z,37.89
2023-05-10T21:06:57.518Z,38.10
2023-05-10T21:12:01.706Z,38.44
2023-05-10T21:17:04.709Z,38.98
2023-05-10T21:22:08.321Z,39.16
2023-05-10T21:27:11.138Z,39.16
2023-05-10T21:32:15.029Z,39.17
2023-05-10T21:37:17.810Z,39.71
2023-05-10T21:42:20.481Z,39.77
2023-05-10T21:47:23.242Z,40.11
2023-05-10T21:52:25.933Z,40.54
2023-05-10T21:57:28.653Z,40.67
2023-05-10T22:02:31.541Z,41.29
2023-05-10T22:07:34.543Z,41.74
2023-05-10T22:12:37.278Z,42.16
2023-05-10T22:17:40.760Z,42.51
2023-05-10T22:22:44.406Z,43.14
2023-05-10T22:27:47.169Z,43.56
2023-05-10T22:32:50.041Z,43.82
2023-05-10T22:37:52.744Z,43.92
2023-05-10T22:42:55.473Z,43.97
2023-05-10T22:48:04.645Z,44.09
2023-05-10T22:53:07.375Z,44.29
2023-05-10T22:58:10.182Z,44.81
2023-05-10T23:03:12.884Z,45.00
2023-05-10T23:08:15.522Z,45.54
2023-05-10T23:13:20.788Z,45.42
2023-05-10T23:18:23.473Z,45.05
2023-05-10T23:23:26.274Z,45.23
2023-05-10T23:28:29.042Z,45.18
2023-05-10T23:33:31.745Z,45.05
2023-05-10T23:38:34.457Z,45.11
2023-05-10T23:43:37.260Z,44.98
2023-05-10T23:48:39.984Z,45.14
2023-05-10T23:53:42.683Z,45.20
2023-05-10T23:58:46.463Z,45.30
